EBFS

Florennes

Airport
ICAO code
EBFS
Summary
ICAO Region
EUR
ICAO Territory
Location

Florennes,

Elevation
935 ft
Coordinates
50° 14' 36" N , 4° 38' 45" E
KCC
Metar
Observation
EBFS 081825Z AUTO 24005KT 8000 BKN060/// 00/M01 Q1007 BLU
Station
Florennes
Date/Time
2022-12-08 18:25:00
Wind direction
240°
Wind speed
05 kts
Lowest cloud amount
broken clouds
Temperature
0°C
Dew point
-1°C
Humidity
92%
QNH
1007 hPa
Weather condition
n/a

Description

Florennes Air Base is a Belgian Air Component military airfield located in Florennes, a municipality of Belgium. It is home to the 2nd Tactical Wing, operating F-16 Fighting Falcons. It also used to be the home to the Tactical Leadership Programme (TLP), a joint training program formed by 10 NATO members. On July 31, 2009, TLP moved to Albacete in Spain.

Climatology

Temperate Marine climate/Oceanic climate (Köppen climate classification Cfb) - Moderately cool summer and comparatively warm winter.

Runways

Designator Length Width Surface Rops
08R/26L 2250 23 ASP No/No
08L/26R 3385 45 ASP No/No

Airport map

Aerial View

SKYbrary Partners:

Safety knowledge contributed by: